Terminal Aerodrome Forecast
Issued by NWS

Current Version | Previous Version | Text Only | Print | Product List | Glossary On
Versions: 1 2 3 4 5 6 7 8 9 10 11 12 13 14 15 16 17 18 19 20 21 22 23 24 25
000
FTAK31 PANC 251140 CCA
TAFAGK
TAF COR
PAGK 251140Z 2512/2612 VRB03KT 3SM -SN BR OVC025
      TEMPO 2512/2515 1SM -SN BR OVC020
     FM252100 VRB03KT 6SM -SHSN BKN030
     FM260000 VRB03KT P6SM VCSH BKN030=

USA.gov is the U.S. government's official web portal to all federal, state and local government web resources and services.